Dallas Love Field
KDAL : rendu visible

Aérodrome :











RETROUVEZ-NOUS SUR...

 
LOGIN :

S'inscrire | Disclaimer

   EN    FR    IT 

 









Légende :    VFR   VFR Marginal   IFR   IFR Intensif   IFR Très Intensif
Visi : 
Plafond : 
>= 8 km
>= 3000ft
5 à 8 km
1000 à 3000 ft
1500m à 5 km
500 à 1000 ft
800 à 1500m
200 à 500 ft
< 800m
< 200 ft
Symboles :   Orages  Brouillard  Fortes neiges  Fortes précipitations  Vent > 20 kt






- Altitude de l'aérodrome : 487 ft
- Code IATA : DAL


KDAL - Dallas Love Field

DERNIER METAR :
  • 191453Z 00000KT 10SM FEW180 FEW280 14/06 A3000 RMK AO2 SLP154 T01440056 51020 $

METARs EXPIRÉS :
  • 191353Z 00000KT 10SM FEW180 FEW280 12/06 A2999 RMK AO2 SLP151 T01170056 $
  • 191253Z 00000KT 10SM FEW300 08/04 A2996 RMK AO2 SLP144 T00830044 $

TAF KDAL
Valide du 19 à 15h jusqu'au 20 à 12h UTC


191434Z 1915/2012 21007KT P6SM FEW250
FM191700 15010KT P6SM FEW250
FM201100 17011KT P6SM BKN025



MET'MAP, la Météo Aéronautique d'un coup d'oeil ! - Copyright ORBIFLY Décembre 2007 - Disclaimer

ORBIFLY MET'MAP TEAM :

Programmation & Développement : Alexandra Zaïnal
Conception & Développement : Baudouin d'Aumeries
Co-Programmation & Développement : Marc-Olivier Méhu
Soutien technique & logistique : Manuel Goepfert

Contact : metmap@orbifly.com




SOURCES & CREDITS :

   NOAA       Earth
Advisory